sensor_id;sensor_type;location;lat;lon;timestamp;pressure;altitude;pressure_sealevel;temperature;humidity
65557;BME280;52200;53.490;14.376;2022-09-03T00:00:14;102086.34;;;8.45;87.27
65557;BME280;52200;53.490;14.376;2022-09-03T00:02:43;102082.06;;;8.33;87.80
65557;BME280;52200;53.490;14.376;2022-09-03T00:10:08;102084.59;;;8.32;88.88
65557;BME280;52200;53.490;14.376;2022-09-03T00:12:39;102076.09;;;8.25;88.76
65557;BME280;52200;53.490;14.376;2022-09-03T00:15:12;102080.31;;;8.23;89.35
65557;BME280;52200;53.490;14.376;2022-09-03T00:17:52;102076.94;;;8.21;89.19
65557;BME280;52200;53.490;14.376;2022-09-03T00:22:59;102074.38;;;8.15;88.51
65557;BME280;52200;53.490;14.376;2022-09-03T00:25:44;102068.44;;;8.10;88.70
65557;BME280;52200;53.490;14.376;2022-09-03T00:28:18;102083.63;;;8.13;89.73
65557;BME280;52200;53.490;14.376;2022-09-03T00:30:49;102072.69;;;8.20;89.49
65557;BME280;52200;53.490;14.376;2022-09-03T00:33:22;102075.25;;;8.23;89.08
65557;BME280;52200;53.490;14.376;2022-09-03T00:36:01;102072.66;;;8.14;89.97
65557;BME280;52200;53.490;14.376;2022-09-03T00:38:30;102081.09;;;8.13;89.87
65557;BME280;52200;53.490;14.376;2022-09-03T00:41:09;102070.16;;;8.17;89.63
65557;BME280;52200;53.490;14.376;2022-09-03T00:46:23;102075.19;;;8.14;89.57
65557;BME280;52200;53.490;14.376;2022-09-03T00:54:17;102080.13;;;7.87;89.61
65557;BME280;52200;53.490;14.376;2022-09-03T01:13:01;102069.03;;;7.73;89.91
65557;BME280;52200;53.490;14.376;2022-09-03T01:15:44;102064.91;;;7.80;90.51
65557;BME280;52200;53.490;14.376;2022-09-03T01:18:35;102069.06;;;7.74;90.27
65557;BME280;52200;53.490;14.376;2022-09-03T01:31:52;102067.50;;;7.92;90.85
65557;BME280;52200;53.490;14.376;2022-09-03T01:34:35;102063.16;;;7.72;93.80
65557;BME280;52200;53.490;14.376;2022-09-03T01:45:54;102073.63;;;8.37;93.51
65557;BME280;52200;53.490;14.376;2022-09-03T01:59:11;102076.31;;;8.65;99.90
65557;BME280;52200;53.490;14.376;2022-09-03T02:01:52;102073.78;;;8.75;98.77
65557;BME280;52200;53.490;14.376;2022-09-03T02:04:21;102080.59;;;8.91;98.73
65557;BME280;52200;53.490;14.376;2022-09-03T02:06:49;102077.19;;;8.84;99.22
65557;BME280;52200;53.490;14.376;2022-09-03T02:09:16;102076.38;;;9.06;98.41
65557;BME280;52200;53.490;14.376;2022-09-03T02:11:43;102075.56;;;9.14;96.91
65557;BME280;52200;53.490;14.376;2022-09-03T02:14:11;102073.88;;;9.27;97.21
65557;BME280;52200;53.490;14.376;2022-09-03T02:16:37;102070.50;;;9.10;97.93
65557;BME280;52200;53.490;14.376;2022-09-03T02:19:11;102076.44;;;9.27;96.83
65557;BME280;52200;53.490;14.376;2022-09-03T02:21:45;102066.25;;;9.18;96.43
65557;BME280;52200;53.490;14.376;2022-09-03T02:24:12;102067.09;;;9.23;95.46
65557;BME280;52200;53.490;14.376;2022-09-03T02:26:38;102065.41;;;9.13;96.74
65557;BME280;52200;53.490;14.376;2022-09-03T02:29:03;102072.19;;;9.32;95.85
65557;BME280;52200;53.490;14.376;2022-09-03T02:31:29;102066.28;;;9.47;93.91
65557;BME280;52200;53.490;14.376;2022-09-03T02:33:56;102057.84;;;9.47;93.46
65557;BME280;52200;53.490;14.376;2022-09-03T02:36:29;102054.44;;;9.18;95.76
65557;BME280;52200;53.490;14.376;2022-09-03T02:38:56;102060.34;;;9.25;96.09
65557;BME280;52200;53.490;14.376;2022-09-03T02:41:22;102061.22;;;9.46;94.33
65557;BME280;52200;53.490;14.376;2022-09-03T02:44:08;102056.97;;;9.51;93.53
65557;BME280;52200;53.490;14.376;2022-09-03T02:47:02;102056.16;;;9.44;94.05
65557;BME280;52200;53.490;14.376;2022-09-03T02:49:28;102064.59;;;9.39;93.54
65557;BME280;52200;53.490;14.376;2022-09-03T02:52:03;102059.50;;;9.45;93.44
65557;BME280;52200;53.490;14.376;2022-09-03T02:54:37;102054.44;;;9.45;93.00
65557;BME280;52200;53.490;14.376;2022-09-03T02:57:08;102065.44;;;9.38;93.12
65557;BME280;52200;53.490;14.376;2022-09-03T02:59:35;102059.50;;;9.40;92.76
65557;BME280;52200;53.490;14.376;2022-09-03T03:02:01;102059.50;;;9.40;92.28
65557;BME280;52200;53.490;14.376;2022-09-03T03:04:28;102068.81;;;9.36;92.07
65557;BME280;52200;53.490;14.376;2022-09-03T03:06:54;102064.56;;;9.28;92.23
65557;BME280;52200;53.490;14.376;2022-09-03T03:09:20;102070.50;;;9.31;91.90
65557;BME280;52200;53.490;14.376;2022-09-03T03:11:46;102060.38;;;9.30;92.29
65557;BME280;52200;53.490;14.376;2022-09-03T03:14:14;102062.06;;;9.26;92.57
65557;BME280;52200;53.490;14.376;2022-09-03T03:16:39;102062.03;;;9.22;92.80
65557;BME280;52200;53.490;14.376;2022-09-03T03:19:04;102066.28;;;9.27;93.04
65557;BME280;52200;53.490;14.376;2022-09-03T03:21:30;102066.28;;;9.19;93.06
65557;BME280;52200;53.490;14.376;2022-09-03T03:23:56;102065.44;;;9.22;92.10
65557;BME280;52200;53.490;14.376;2022-09-03T03:26:21;102062.03;;;9.22;92.20
65557;BME280;52200;53.490;14.376;2022-09-03T03:28:50;102060.38;;;9.16;93.07
65557;BME280;52200;53.490;14.376;2022-09-03T03:31:21;102068.78;;;9.12;93.01
65557;BME280;52200;53.490;14.376;2022-09-03T03:33:55;102065.41;;;9.13;93.14
65557;BME280;52200;53.490;14.376;2022-09-03T03:36:22;102067.13;;;9.12;92.36
65557;BME280;52200;53.490;14.376;2022-09-03T03:38:48;102067.94;;;9.07;92.31
65557;BME280;52200;53.490;14.376;2022-09-03T03:41:20;102074.69;;;8.98;92.86
65557;BME280;52200;53.490;14.376;2022-09-03T03:43:52;102074.69;;;9.03;92.97
65557;BME280;52200;53.490;14.376;2022-09-03T03:46:19;102071.31;;;9.04;93.00
65557;BME280;52200;53.490;14.376;2022-09-03T03:48:47;102068.78;;;8.99;92.67
65557;BME280;52200;53.490;14.376;2022-09-03T03:51:12;102068.78;;;9.02;92.73
65557;BME280;52200;53.490;14.376;2022-09-03T03:53:38;102068.78;;;8.89;92.92
65557;BME280;52200;53.490;14.376;2022-09-03T03:56:10;102064.44;;;8.53;94.24
65557;BME280;52200;53.490;14.376;2022-09-03T03:58:36;102072.06;;;8.67;93.45
65557;BME280;52200;53.490;14.376;2022-09-03T04:01:11;102076.34;;;8.76;93.65
65557;BME280;52200;53.490;14.376;2022-09-03T04:03:37;102067.00;;;8.67;92.91
65557;BME280;52200;53.490;14.376;2022-09-03T04:06:03;102070.38;;;8.60;93.50
65557;BME280;52200;53.490;14.376;2022-09-03T04:08:30;102068.69;;;8.62;93.97
65557;BME280;52200;53.490;14.376;2022-09-03T04:11:00;102078.00;;;8.71;92.25
65557;BME280;52200;53.490;14.376;2022-09-03T04:13:29;102079.66;;;8.58;92.66
65557;BME280;52200;53.490;14.376;2022-09-03T04:16:04;102075.44;;;8.54;93.81
65557;BME280;52200;53.490;14.376;2022-09-03T04:18:31;102071.19;;;8.56;93.27
65557;BME280;52200;53.490;14.376;2022-09-03T04:21:01;102075.44;;;8.62;93.04
65557;BME280;52200;53.490;14.376;2022-09-03T04:23:35;102078.84;;;8.67;92.14
65557;BME280;52200;53.490;14.376;2022-09-03T04:26:02;102077.16;;;8.64;92.24
65557;BME280;52200;53.490;14.376;2022-09-03T04:28:27;102073.75;;;8.62;92.62
65557;BME280;52200;53.490;14.376;2022-09-03T04:30:53;102072.91;;;8.63;92.48
65557;BME280;52200;53.490;14.376;2022-09-03T04:33:20;102076.34;;;8.78;92.41
65557;BME280;52200;53.490;14.376;2022-09-03T04:35:45;102068.72;;;8.81;92.09
65557;BME280;52200;53.490;14.376;2022-09-03T04:38:11;102072.97;;;8.79;92.35
65557;BME280;52200;53.490;14.376;2022-09-03T04:40:37;102070.44;;;8.79;92.44
65557;BME280;52200;53.490;14.376;2022-09-03T04:43:03;102075.50;;;8.79;93.64
65557;BME280;52200;53.490;14.376;2022-09-03T04:45:29;102087.34;;;8.92;93.72
65557;BME280;52200;53.490;14.376;2022-09-03T04:50:21;102079.75;;;8.98;94.29
65557;BME280;52200;53.490;14.376;2022-09-03T04:52:47;102084.00;;;9.06;93.92
65557;BME280;52200;53.490;14.376;2022-09-03T04:55:13;102077.22;;;8.97;96.21
65557;BME280;52200;53.490;14.376;2022-09-03T04:57:39;102075.53;;;9.07;99.01
65557;BME280;52200;53.490;14.376;2022-09-03T05:00:07;102072.16;;;9.09;98.84
65557;BME280;52200;53.490;14.376;2022-09-03T05:02:36;102082.34;;;9.39;98.06
65557;BME280;52200;53.490;14.376;2022-09-03T05:05:02;102085.72;;;9.56;96.76
65557;BME280;52200;53.490;14.376;2022-09-03T05:07:29;102086.56;;;9.67;96.66
65557;BME280;52200;53.490;14.376;2022-09-03T05:10:04;102084.88;;;9.62;96.41
65557;BME280;52200;53.490;14.376;2022-09-03T05:12:31;102089.94;;;9.65;97.52
65557;BME280;52200;53.490;14.376;2022-09-03T05:14:57;102088.25;;;9.68;98.67
65557;BME280;52200;53.490;14.376;2022-09-03T05:17:25;102089.94;;;9.87;97.24
65557;BME280;52200;53.490;14.376;2022-09-03T05:19:50;102084.00;;;9.86;97.54
65557;BME280;52200;53.490;14.376;2022-09-03T05:22:16;102087.38;;;9.93;98.33
65557;BME280;52200;53.490;14.376;2022-09-03T05:24:46;102082.28;;;10.10;96.50
65557;BME280;52200;53.490;14.376;2022-09-03T05:27:13;102080.53;;;10.18;96.55
65557;BME280;52200;53.490;14.376;2022-09-03T05:29:42;102083.03;;;10.41;95.82
65557;BME280;52200;53.490;14.376;2022-09-03T05:32:08;102080.50;;;10.30;96.03
65557;BME280;52200;53.490;14.376;2022-09-03T05:34:33;102087.25;;;10.31;95.62
65557;BME280;52200;53.490;14.376;2022-09-03T05:36:59;102080.47;;;10.46;95.88
65557;BME280;52200;53.490;14.376;2022-09-03T05:39:24;102079.63;;;10.47;95.42
65557;BME280;52200;53.490;14.376;2022-09-03T05:41:49;102086.31;;;10.60;94.88
65557;BME280;52200;53.490;14.376;2022-09-03T05:44:17;102077.88;;;10.60;94.44
65557;BME280;52200;53.490;14.376;2022-09-03T05:46:42;102081.97;;;10.83;94.20
65557;BME280;52200;53.490;14.376;2022-09-03T05:49:08;102081.03;;;11.01;92.64
65557;BME280;52200;53.490;14.376;2022-09-03T05:51:36;102084.47;;;10.93;92.64
65557;BME280;52200;53.490;14.376;2022-09-03T05:54:03;102090.28;;;11.11;91.46
65557;BME280;52200;53.490;14.376;2022-09-03T05:56:30;102096.13;;;11.24;91.10
65557;BME280;52200;53.490;14.376;2022-09-03T05:58:59;102090.19;;;11.23;90.37
65557;BME280;52200;53.490;14.376;2022-09-03T06:01:30;102088.34;;;11.41;90.27
65557;BME280;52200;53.490;14.376;2022-09-03T06:04:02;102092.53;;;11.51;88.96
65557;BME280;52200;53.490;14.376;2022-09-03T06:06:29;102083.09;;;11.59;88.68
65557;BME280;52200;53.490;14.376;2022-09-03T06:08:58;102079.56;;;11.76;87.64
65557;BME280;52200;53.490;14.376;2022-09-03T06:11:25;102085.44;;;11.83;86.93
65557;BME280;52200;53.490;14.376;2022-09-03T06:13:53;102080.28;;;11.90;87.29
65557;BME280;52200;53.490;14.376;2022-09-03T06:16:19;102080.19;;;12.03;86.44
65557;BME280;52200;53.490;14.376;2022-09-03T06:18:46;102078.38;;;12.14;85.56
65557;BME280;52200;53.490;14.376;2022-09-03T06:21:11;102086.69;;;12.27;85.08
65557;BME280;52200;53.490;14.376;2022-09-03T06:23:39;102096.75;;;12.39;84.76
65557;BME280;52200;53.490;14.376;2022-09-03T06:26:07;102094.16;;;12.41;84.16
65557;BME280;52200;53.490;14.376;2022-09-03T06:28:35;102089.06;;;12.43;83.10
65557;BME280;52200;53.490;14.376;2022-09-03T06:31:03;102094.97;;;12.45;83.11
65557;BME280;52200;53.490;14.376;2022-09-03T06:33:30;102092.28;;;12.58;83.15
65557;BME280;52200;53.490;14.376;2022-09-03T06:35:57;102088.75;;;12.66;82.32
65557;BME280;52200;53.490;14.376;2022-09-03T06:38:24;102093.75;;;12.75;81.84
65557;BME280;52200;53.490;14.376;2022-09-03T06:40:59;102104.50;;;12.97;81.27
65557;BME280;52200;53.490;14.376;2022-09-03T06:43:30;102098.34;;;13.09;80.66
65557;BME280;52200;53.490;14.376;2022-09-03T06:46:11;102099.25;;;13.08;79.94
65557;BME280;52200;53.490;14.376;2022-09-03T06:48:38;102092.38;;;13.10;79.57
65557;BME280;52200;53.490;14.376;2022-09-03T06:51:07;102085.53;;;13.14;79.42
65557;BME280;52200;53.490;14.376;2022-09-03T06:53:35;102092.97;;;13.28;78.85
65557;BME280;52200;53.490;14.376;2022-09-03T06:56:03;102097.03;;;13.41;79.25
65557;BME280;52200;53.490;14.376;2022-09-03T06:58:35;102099.31;;;13.58;78.00
65557;BME280;52200;53.490;14.376;2022-09-03T07:01:13;102103.31;;;13.73;77.72
65557;BME280;52200;53.490;14.376;2022-09-03T07:03:41;102090.50;;;13.76;76.79
65557;BME280;52200;53.490;14.376;2022-09-03T07:06:09;102097.09;;;13.86;76.86
65557;BME280;52200;53.490;14.376;2022-09-03T07:08:35;102095.28;;;13.95;76.16
65557;BME280;52200;53.490;14.376;2022-09-03T07:11:08;102091.53;;;14.11;76.35
65557;BME280;52200;53.490;14.376;2022-09-03T07:13:35;102090.59;;;14.17;75.29
65557;BME280;52200;53.490;14.376;2022-09-03T07:16:06;102089.44;;;14.30;75.33
65557;BME280;52200;53.490;14.376;2022-09-03T07:18:32;102087.03;;;14.65;75.01
65557;BME280;52200;53.490;14.376;2022-09-03T07:21:04;102092.28;;;14.98;74.49
65557;BME280;52200;53.490;14.376;2022-09-03T07:23:30;102082.50;;;15.15;73.38
65557;BME280;52200;53.490;14.376;2022-09-03T07:26:01;102086.78;;;15.15;72.21
65557;BME280;52200;53.490;14.376;2022-09-03T07:28:28;102091.84;;;15.17;72.84
65557;BME280;52200;53.490;14.376;2022-09-03T07:31:01;102094.19;;;15.60;72.75
65557;BME280;52200;53.490;14.376;2022-09-03T07:33:28;102094.16;;;15.62;71.47
65557;BME280;52200;53.490;14.376;2022-09-03T07:35:54;102092.75;;;15.85;71.36
65557;BME280;52200;53.490;14.376;2022-09-03T07:38:19;102093.88;;;16.06;71.49
65557;BME280;52200;53.490;14.376;2022-09-03T07:40:47;102086.72;;;16.17;70.38
65557;BME280;52200;53.490;14.376;2022-09-03T07:43:13;102094.91;;;16.00;69.49
65557;BME280;52200;53.490;14.376;2022-09-03T07:45:38;102091.88;;;16.16;69.66
65557;BME280;52200;53.490;14.376;2022-09-03T07:48:04;102097.47;;;16.30;68.90
65557;BME280;52200;53.490;14.376;2022-09-03T07:50:29;102099.50;;;16.49;68.06
65557;BME280;52200;53.490;14.376;2022-09-03T07:53:02;102099.09;;;16.63;67.80
65557;BME280;52200;53.490;14.376;2022-09-03T07:55:27;102095.94;;;16.53;68.59
65557;BME280;52200;53.490;14.376;2022-09-03T07:57:56;102100.84;;;16.60;67.63
65557;BME280;52200;53.490;14.376;2022-09-03T08:00:22;102096.09;;;16.76;69.15
65557;BME280;52200;53.490;14.376;2022-09-03T08:02:48;102098.97;;;16.96;69.45
65557;BME280;52200;53.490;14.376;2022-09-03T08:05:15;102099.72;;;16.99;68.26
65557;BME280;52200;53.490;14.376;2022-09-03T08:07:44;102102.66;;;17.40;69.03
65557;BME280;52200;53.490;14.376;2022-09-03T08:10:09;102096.38;;;17.75;67.09
65557;BME280;52200;53.490;14.376;2022-09-03T08:12:35;102103.38;;;17.69;65.96
65557;BME280;52200;53.490;14.376;2022-09-03T08:15:00;102099.47;;;17.59;66.51
65557;BME280;52200;53.490;14.376;2022-09-03T08:17:26;102104.31;;;17.68;65.13
65557;BME280;52200;53.490;14.376;2022-09-03T08:19:52;102098.63;;;17.84;65.16
65557;BME280;52200;53.490;14.376;2022-09-03T08:22:17;102104.97;;;17.73;65.46
65557;BME280;52200;53.490;14.376;2022-09-03T08:24:44;102107.00;;;17.89;64.90
65557;BME280;52200;53.490;14.376;2022-09-03T08:27:10;102102.06;;;17.83;64.48
65557;BME280;52200;53.490;14.376;2022-09-03T08:29:35;102103.72;;;18.11;64.80
65557;BME280;52200;53.490;14.376;2022-09-03T08:32:02;102101.00;;;18.37;63.59
65557;BME280;52200;53.490;14.376;2022-09-03T08:34:27;102093.78;;;18.69;64.44
65557;BME280;52200;53.490;14.376;2022-09-03T08:36:53;102098.16;;;18.67;63.98
65557;BME280;52200;53.490;14.376;2022-09-03T08:39:18;102091.56;;;18.38;62.34
65557;BME280;52200;53.490;14.376;2022-09-03T08:47:06;102097.28;;;18.45;62.13
65557;BME280;52200;53.490;14.376;2022-09-03T08:52:14;102086.47;;;18.36;62.20
65557;BME280;52200;53.490;14.376;2022-09-03T08:54:42;102086.34;;;18.62;61.93
65557;BME280;52200;53.490;14.376;2022-09-03T08:57:08;102078.31;;;18.69;62.17
65557;BME280;52200;53.490;14.376;2022-09-03T08:59:34;102080.47;;;18.58;61.34
65557;BME280;52200;53.490;14.376;2022-09-03T09:02:23;102083.47;;;18.69;61.23
65557;BME280;52200;53.490;14.376;2022-09-03T09:05:08;102074.94;;;19.12;62.03
65557;BME280;52200;53.490;14.376;2022-09-03T09:07:52;102076.25;;;19.22;60.24
65557;BME280;52200;53.490;14.376;2022-09-03T09:21:27;102077.16;;;19.21;58.40
65557;BME280;52200;53.490;14.376;2022-09-03T09:24:01;102070.84;;;19.28;59.36
65557;BME280;52200;53.490;14.376;2022-09-03T09:26:28;102066.19;;;19.57;59.03
65557;BME280;52200;53.490;14.376;2022-09-03T09:29:00;102059.66;;;19.69;58.27
65557;BME280;52200;53.490;14.376;2022-09-03T09:31:28;102070.97;;;19.67;58.08
65557;BME280;52200;53.490;14.376;2022-09-03T09:33:58;102069.00;;;19.72;57.58
65557;BME280;52200;53.490;14.376;2022-09-03T09:36:26;102066.19;;;19.37;58.10
65557;BME280;52200;53.490;14.376;2022-09-03T09:38:52;102057.13;;;19.28;57.18
65557;BME280;52200;53.490;14.376;2022-09-03T09:41:19;102065.69;;;19.28;57.43
65557;BME280;52200;53.490;14.376;2022-09-03T09:43:46;102058.19;;;19.43;57.55
65557;BME280;52200;53.490;14.376;2022-09-03T09:46:15;102052.66;;;19.52;57.43
65557;BME280;52200;53.490;14.376;2022-09-03T09:48:56;102053.81;;;19.65;58.17
65557;BME280;52200;53.490;14.376;2022-09-03T09:51:25;102045.72;;;19.54;57.78
65557;BME280;52200;53.490;14.376;2022-09-03T09:54:13;102052.75;;;19.70;57.59
65557;BME280;52200;53.490;14.376;2022-09-03T09:56:42;102044.22;;;19.88;56.54
65557;BME280;52200;53.490;14.376;2022-09-03T09:59:10;102047.03;;;20.03;56.82
65557;BME280;52200;53.490;14.376;2022-09-03T10:01:38;102050.50;;;20.02;55.21
65557;BME280;52200;53.490;14.376;2022-09-03T10:04:24;102040.75;;;19.89;54.86
65557;BME280;52200;53.490;14.376;2022-09-03T10:07:13;102040.16;;;20.21;55.47
65557;BME280;52200;53.490;14.376;2022-09-03T10:09:40;102036.63;;;20.04;55.81
65557;BME280;52200;53.490;14.376;2022-09-03T10:12:13;102035.72;;;20.24;55.24
65557;BME280;52200;53.490;14.376;2022-09-03T10:17:26;102033.50;;;19.97;55.62
65557;BME280;52200;53.490;14.376;2022-09-03T10:20:08;102035.78;;;20.23;55.51
65557;BME280;52200;53.490;14.376;2022-09-03T10:23:00;102022.59;;;20.29;52.56
65557;BME280;52200;53.490;14.376;2022-09-03T10:25:41;102023.53;;;20.45;52.89
65557;BME280;52200;53.490;14.376;2022-09-03T10:28:15;102023.28;;;20.33;53.91
65557;BME280;52200;53.490;14.376;2022-09-03T10:30:53;102016.78;;;20.43;52.68
65557;BME280;52200;53.490;14.376;2022-09-03T10:33:39;102008.72;;;20.49;52.29
65557;BME280;52200;53.490;14.376;2022-09-03T10:36:36;102006.34;;;20.81;52.31
65557;BME280;52200;53.490;14.376;2022-09-03T10:41:43;102012.25;;;20.66;50.27
65557;BME280;52200;53.490;14.376;2022-09-03T10:44:26;102008.38;;;20.20;50.65
65557;BME280;52200;53.490;14.376;2022-09-03T10:47:28;102016.84;;;20.78;50.32
65557;BME280;52200;53.490;14.376;2022-09-03T10:50:25;102009.56;;;21.04;49.27
65557;BME280;52200;53.490;14.376;2022-09-03T10:53:10;102007.03;;;21.02;50.14
65557;BME280;52200;53.490;14.376;2022-09-03T10:56:06;102000.75;;;20.90;50.46
65557;BME280;52200;53.490;14.376;2022-09-03T10:58:51;101995.84;;;20.67;50.41
65557;BME280;52200;53.490;14.376;2022-09-03T11:07:12;102000.72;;;21.08;48.28
65557;BME280;52200;53.490;14.376;2022-09-03T11:09:54;101987.41;;;21.16;49.13
65557;BME280;52200;53.490;14.376;2022-09-03T11:12:28;101989.03;;;21.01;49.42
65557;BME280;52200;53.490;14.376;2022-09-03T11:15:00;101985.28;;;21.24;48.06
65557;BME280;52200;53.490;14.376;2022-09-03T11:17:36;101984.41;;;21.41;48.12
65557;BME280;52200;53.490;14.376;2022-09-03T11:20:20;101984.13;;;21.63;47.92
65557;BME280;52200;53.490;14.376;2022-09-03T11:22:56;101977.91;;;21.50;48.17
65557;BME280;52200;53.490;14.376;2022-09-03T11:25:30;101977.09;;;21.65;49.06
65557;BME280;52200;53.490;14.376;2022-09-03T11:30:57;101975.97;;;21.37;48.26
65557;BME280;52200;53.490;14.376;2022-09-03T11:33:28;101974.53;;;21.32;47.38
65557;BME280;52200;53.490;14.376;2022-09-03T11:36:00;101968.50;;;20.62;48.68
65557;BME280;52200;53.490;14.376;2022-09-03T11:38:28;101961.16;;;20.18;49.69
65557;BME280;52200;53.490;14.376;2022-09-03T11:41:11;101951.03;;;20.33;49.61
65557;BME280;52200;53.490;14.376;2022-09-03T11:43:41;101953.69;;;20.31;49.46
65557;BME280;52200;53.490;14.376;2022-09-03T11:48:38;101947.84;;;20.98;48.31
65557;BME280;52200;53.490;14.376;2022-09-03T11:51:04;101942.31;;;21.21;49.68
65557;BME280;52200;53.490;14.376;2022-09-03T11:53:53;101936.53;;;21.50;49.75
65557;BME280;52200;53.490;14.376;2022-09-03T11:56:18;101930.59;;;21.48;48.63
65557;BME280;52200;53.490;14.376;2022-09-03T11:58:44;101929.59;;;21.50;48.79
65557;BME280;52200;53.490;14.376;2022-09-03T12:01:15;101943.06;;;21.23;49.55
65557;BME280;52200;53.490;14.376;2022-09-03T12:04:00;101937.06;;;21.23;47.59
65557;BME280;52200;53.490;14.376;2022-09-03T12:09:23;101936.66;;;20.97;49.97
65557;BME280;52200;53.490;14.376;2022-09-03T12:19:57;101929.03;;;20.60;49.67
65557;BME280;52200;53.490;14.376;2022-09-03T12:22:25;101917.97;;;20.39;49.38
65557;BME280;52200;53.490;14.376;2022-09-03T12:24:53;101912.97;;;20.19;51.22
65557;BME280;52200;53.490;14.376;2022-09-03T12:27:21;101915.94;;;20.11;50.89
65557;BME280;52200;53.490;14.376;2022-09-03T12:29:59;101910.09;;;20.42;51.56
65557;BME280;52200;53.490;14.376;2022-09-03T12:32:31;101905.31;;;20.52;50.39
65557;BME280;52200;53.490;14.376;2022-09-03T12:35:18;101902.56;;;20.03;50.97
65557;BME280;52200;53.490;14.376;2022-09-03T12:37:44;101909.53;;;20.01;52.09
65557;BME280;52200;53.490;14.376;2022-09-03T12:40:39;101904.81;;;19.91;51.79
65557;BME280;52200;53.490;14.376;2022-09-03T12:43:15;101910.31;;;20.20;52.77
65557;BME280;52200;53.490;14.376;2022-09-03T12:45:43;101898.19;;;20.22;51.20
65557;BME280;52200;53.490;14.376;2022-09-03T12:48:14;101895.19;;;19.95;50.50
65557;BME280;52200;53.490;14.376;2022-09-03T12:50:43;101903.69;;;19.97;50.63
65557;BME280;52200;53.490;14.376;2022-09-03T12:53:12;101890.88;;;19.95;50.75
65557;BME280;52200;53.490;14.376;2022-09-03T12:55:48;101884.34;;;19.69;50.83
65557;BME280;52200;53.490;14.376;2022-09-03T12:58:30;101882.81;;;19.84;50.57
65557;BME280;52200;53.490;14.376;2022-09-03T13:01:10;101882.22;;;20.49;50.99
65557;BME280;52200;53.490;14.376;2022-09-03T13:06:13;101875.47;;;21.47;48.96
65557;BME280;52200;53.490;14.376;2022-09-03T13:08:55;101878.38;;;21.41;48.71
65557;BME280;52200;53.490;14.376;2022-09-03T13:11:22;101881.78;;;21.89;49.37
65557;BME280;52200;53.490;14.376;2022-09-03T13:14:07;101866.97;;;22.08;46.03
65557;BME280;52200;53.490;14.376;2022-09-03T13:27:45;101862.19;;;21.21;48.28
65557;BME280;52200;53.490;14.376;2022-09-03T13:30:21;101867.19;;;20.75;48.43
65557;BME280;52200;53.490;14.376;2022-09-03T13:32:57;101871.28;;;20.61;49.47
65557;BME280;52200;53.490;14.376;2022-09-03T13:43:45;101860.31;;;21.07;48.72
65557;BME280;52200;53.490;14.376;2022-09-03T13:46:42;101855.94;;;20.76;49.78
65557;BME280;52200;53.490;14.376;2022-09-03T13:52:10;101849.19;;;21.39;48.23
65557;BME280;52200;53.490;14.376;2022-09-03T13:54:45;101839.84;;;21.20;48.05
65557;BME280;52200;53.490;14.376;2022-09-03T13:57:33;101837.16;;;21.22;47.31
65557;BME280;52200;53.490;14.376;2022-09-03T14:00:12;101848.25;;;21.08;47.78
65557;BME280;52200;53.490;14.376;2022-09-03T14:08:11;101849.00;;;21.42;47.16
65557;BME280;52200;53.490;14.376;2022-09-03T14:10:57;101851.34;;;21.15;46.96
65557;BME280;52200;53.490;14.376;2022-09-03T14:16:33;101851.25;;;21.48;47.73
65557;BME280;52200;53.490;14.376;2022-09-03T14:22:21;101841.66;;;21.18;48.11
65557;BME280;52200;53.490;14.376;2022-09-03T14:24:54;101846.69;;;20.72;49.14
65557;BME280;52200;53.490;14.376;2022-09-03T14:27:29;101839.06;;;20.69;49.21
65557;BME280;52200;53.490;14.376;2022-09-03T14:30:01;101836.50;;;21.18;49.18
65557;BME280;52200;53.490;14.376;2022-09-03T14:35:24;101829.78;;;21.94;46.79
65557;BME280;52200;53.490;14.376;2022-09-03T14:38:10;101838.06;;;21.85;45.98
65557;BME280;52200;53.490;14.376;2022-09-03T14:40:44;101835.44;;;22.01;47.23
65557;BME280;52200;53.490;14.376;2022-09-03T14:48:34;101834.16;;;21.30;47.06
65557;BME280;52200;53.490;14.376;2022-09-03T14:59:51;101836.78;;;20.80;49.36
65557;BME280;52200;53.490;14.376;2022-09-03T15:05:08;101847.22;;;20.08;52.11
65557;BME280;52200;53.490;14.376;2022-09-03T15:07:55;101843.53;;;19.96;51.68
65557;BME280;52200;53.490;14.376;2022-09-03T15:10:31;101839.13;;;20.34;52.24
65557;BME280;52200;53.490;14.376;2022-09-03T15:13:17;101830.69;;;20.30;50.18
65557;BME280;52200;53.490;14.376;2022-09-03T15:24:08;101822.06;;;20.82;49.00
65557;BME280;52200;53.490;14.376;2022-09-03T15:35:10;101828.69;;;21.20;47.19
65557;BME280;52200;53.490;14.376;2022-09-03T15:37:46;101822.66;;;21.03;47.30
65557;BME280;52200;53.490;14.376;2022-09-03T15:40:28;101832.53;;;20.61;48.13
65557;BME280;52200;53.490;14.376;2022-09-03T15:43:05;101830.00;;;20.44;48.89
65557;BME280;52200;53.490;14.376;2022-09-03T15:45:47;101833.28;;;20.30;50.45
65557;BME280;52200;53.490;14.376;2022-09-03T15:51:16;101832.91;;;20.20;49.21
65557;BME280;52200;53.490;14.376;2022-09-03T15:56:38;101841.34;;;20.06;49.65
65557;BME280;52200;53.490;14.376;2022-09-03T15:59:16;101836.56;;;20.16;49.48
65557;BME280;52200;53.490;14.376;2022-09-03T16:02:04;101832.75;;;20.23;48.94
65557;BME280;52200;53.490;14.376;2022-09-03T16:05:14;101839.38;;;20.62;49.98
65557;BME280;52200;53.490;14.376;2022-09-03T16:10:18;101823.56;;;21.18;48.62
65557;BME280;52200;53.490;14.376;2022-09-03T16:16:10;101836.25;;;20.22;49.21
65557;BME280;52200;53.490;14.376;2022-09-03T16:21:38;101844.03;;;19.86;50.60
65557;BME280;52200;53.490;14.376;2022-09-03T16:24:21;101831.50;;;19.78;50.44